createdAt,value
2019-05-14T00:02:31.679Z,103477.84
2019-05-14T00:05:01.718Z,103474.98
2019-05-14T00:07:31.990Z,103482.38
2019-05-14T00:10:01.237Z,103474.07
2019-05-14T00:12:31.458Z,103471.58
2019-05-14T00:15:02.059Z,103469.27
2019-05-14T00:17:31.932Z,103474.22
2019-05-14T00:20:07.400Z,103467.05
2019-05-14T00:22:32.013Z,103466.84
2019-05-14T00:25:01.111Z,103468.05
2019-05-14T00:27:31.193Z,103456.77
2019-05-14T00:30:02.272Z,103456.19
2019-05-14T00:32:31.766Z,103457.52
2019-05-14T00:35:01.922Z,103465.83
2019-05-14T00:37:32.182Z,103464.23
2019-05-14T00:40:01.375Z,103463.94
2019-05-14T00:42:31.904Z,103461.80
2019-05-14T00:45:01.232Z,103462.95
2019-05-14T00:47:31.006Z,103464.02
2019-05-14T00:50:02.070Z,103464.73
2019-05-14T00:52:31.472Z,103473.92
2019-05-14T00:55:01.159Z,103473.09
2019-05-14T00:57:31.634Z,103471.07
2019-05-14T01:00:01.123Z,103472.51
2019-05-14T01:02:31.890Z,103475.97
2019-05-14T01:05:01.878Z,103477.56
2019-05-14T01:07:31.610Z,103476.34
2019-05-14T01:10:01.288Z,103482.07
2019-05-14T01:12:31.784Z,103480.81
2019-05-14T01:15:09.528Z,103469.89
2019-05-14T01:17:31.473Z,103469.18
2019-05-14T01:20:03.078Z,103471.25
2019-05-14T01:22:31.638Z,103465.89
2019-05-14T01:25:01.577Z,103466.03
2019-05-14T01:27:31.734Z,103457.09
2019-05-14T01:30:02.086Z,103455.53
2019-05-14T01:32:31.507Z,103454.78
2019-05-14T01:35:01.397Z,103451.45
2019-05-14T01:37:31.123Z,103459.02
2019-05-14T01:40:01.207Z,103453.39
2019-05-14T01:42:32.063Z,103455.80
2019-05-14T01:45:02.580Z,103453.17
2019-05-14T01:47:31.845Z,103447.11
2019-05-14T01:50:02.087Z,103439.77
2019-05-14T01:52:31.815Z,103439.84
2019-05-14T01:55:02.165Z,103431.22
2019-05-14T01:57:31.265Z,103432.27
2019-05-14T02:00:02.111Z,103429.94
2019-05-14T02:02:31.379Z,103433.52
2019-05-14T02:05:02.023Z,103425.28
2019-05-14T02:07:31.495Z,103423.44
2019-05-14T02:10:01.192Z,103425.86
2019-05-14T02:12:31.566Z,103422.20
2019-05-14T02:15:02.021Z,103425.88
2019-05-14T02:17:31.811Z,103425.67
2019-05-14T02:20:02.062Z,103428.73
2019-05-14T02:22:32.055Z,103422.91
2019-05-14T02:25:02.391Z,103417.61
2019-05-14T02:27:34.877Z,103421.09
2019-05-14T02:30:02.366Z,103425.30
2019-05-14T02:32:31.442Z,103428.72
2019-05-14T02:35:00.380Z,103422.02
2019-05-14T02:37:30.118Z,103428.16
2019-05-14T02:39:59.642Z,103429.51
2019-05-14T02:42:29.152Z,103428.36
2019-05-14T02:44:59.321Z,103423.36
2019-05-14T02:47:29.812Z,103420.68
2019-05-14T02:49:59.030Z,103427.09
2019-05-14T02:52:29.196Z,103418.09
2019-05-14T02:54:59.697Z,103419.12
2019-05-14T02:57:30.426Z,103418.53
2019-05-14T02:59:59.742Z,103412.93
2019-05-14T03:02:29.661Z,103412.50
2019-05-14T03:04:59.184Z,103412.05
2019-05-14T03:07:29.778Z,103419.75
2019-05-14T03:09:59.413Z,103415.75
2019-05-14T03:12:30.261Z,103425.91
2019-05-14T03:14:58.955Z,103429.14
2019-05-14T03:17:29.970Z,103438.62
2019-05-14T03:20:00.097Z,103424.62
2019-05-14T03:22:43.366Z,103426.63
2019-05-14T03:24:59.805Z,103425.81
2019-05-14T03:27:30.360Z,103428.33
2019-05-14T03:29:59.391Z,103427.62
2019-05-14T03:32:33.145Z,103435.99
2019-05-14T03:35:03.532Z,103427.20
2019-05-14T03:37:31.040Z,103426.46
2019-05-14T03:39:59.544Z,103419.30
2019-05-14T03:42:29.220Z,103411.96
2019-05-14T03:44:59.577Z,103413.55
2019-05-14T03:47:29.816Z,103409.36
2019-05-14T03:49:59.078Z,103407.90
2019-05-14T03:52:29.252Z,103403.80
2019-05-14T03:55:01.304Z,103406.52
2019-05-14T03:57:29.169Z,103411.75
2019-05-14T03:59:59.829Z,103412.73
2019-05-14T04:02:29.669Z,103413.28
2019-05-14T04:04:59.970Z,103417.52
2019-05-14T04:07:30.820Z,103422.13
2019-05-14T04:10:00.435Z,103415.95
2019-05-14T04:12:31.766Z,103407.76
2019-05-14T04:15:02.738Z,103403.09
2019-05-14T04:17:40.926Z,103407.53
2019-05-14T04:20:09.401Z,103408.78
2019-05-14T04:22:39.451Z,103407.51
2019-05-14T04:25:10.893Z,103409.18
2019-05-14T04:27:40.528Z,103403.91
2019-05-14T04:30:10.891Z,103406.52
2019-05-14T04:32:41.461Z,103403.56
2019-05-14T04:35:10.740Z,103400.25
2019-05-14T04:37:40.285Z,103402.31
2019-05-14T04:40:10.123Z,103403.09
2019-05-14T04:42:40.094Z,103400.16
2019-05-14T04:45:11.140Z,103396.97
2019-05-14T04:47:42.144Z,103395.69
2019-05-14T04:50:10.760Z,103392.37
2019-05-14T04:52:40.444Z,103399.80
2019-05-14T04:55:10.120Z,103389.30
2019-05-14T04:57:39.553Z,103389.96
2019-05-14T05:00:12.162Z,103392.95
2019-05-14T05:02:39.942Z,103389.59
2019-05-14T05:05:09.267Z,103388.13
2019-05-14T05:07:40.293Z,103388.16
2019-05-14T05:10:10.388Z,103387.92
2019-05-14T05:12:39.141Z,103393.56
2019-05-14T05:15:09.741Z,103392.31
2019-05-14T05:17:47.202Z,103399.36
2019-05-14T05:20:10.051Z,103401.38
2019-05-14T05:22:39.626Z,103405.44
2019-05-14T05:25:08.641Z,103397.06
2019-05-14T05:27:38.226Z,103395.05
2019-05-14T05:30:08.602Z,103389.23
2019-05-14T05:32:38.840Z,103385.08
2019-05-14T05:35:09.572Z,103389.00
2019-05-14T05:37:38.602Z,103383.90
2019-05-14T05:40:09.192Z,103382.72
2019-05-14T05:42:38.602Z,103381.65
2019-05-14T05:45:09.103Z,103377.27
2019-05-14T05:47:39.125Z,103377.84
2019-05-14T05:50:08.838Z,103369.62
2019-05-14T05:52:38.757Z,103372.84
2019-05-14T05:55:08.880Z,103370.56
2019-05-14T05:57:39.347Z,103362.02
2019-05-14T06:00:09.578Z,103370.26
2019-05-14T06:02:39.953Z,103359.25
2019-05-14T06:05:08.857Z,103365.42
2019-05-14T06:07:39.427Z,103359.34
2019-05-14T06:10:08.968Z,103359.28
2019-05-14T06:12:38.795Z,103357.72
2019-05-14T06:15:08.695Z,103355.45
2019-05-14T06:17:39.125Z,103357.59
2019-05-14T06:20:08.533Z,103356.50
2019-05-14T06:22:38.546Z,103358.09
2019-05-14T06:25:11.041Z,103344.94
2019-05-14T06:27:38.355Z,103340.41
2019-05-14T06:30:09.148Z,103321.09
2019-05-14T06:32:38.707Z,103319.65
2019-05-14T06:35:08.901Z,103318.63
2019-05-14T06:37:38.476Z,103320.28
2019-05-14T06:40:08.755Z,103327.02
2019-05-14T06:42:39.414Z,103326.94
2019-05-14T06:45:09.006Z,103322.99
2019-05-14T06:47:38.250Z,103316.33
2019-05-14T06:50:08.491Z,103323.75
2019-05-14T06:52:38.622Z,103325.77
2019-05-14T06:55:09.076Z,103325.72
2019-05-14T06:57:39.336Z,103323.54
2019-05-14T07:00:08.582Z,103323.81
2019-05-14T07:02:43.364Z,103319.13
2019-05-14T07:05:08.392Z,103312.73
2019-05-14T07:07:40.154Z,103317.78
2019-05-14T07:10:08.975Z,103307.44
2019-05-14T07:12:38.765Z,103310.42
2019-05-14T07:15:09.237Z,103313.70
2019-05-14T07:17:38.533Z,103315.31
2019-05-14T07:20:08.988Z,103317.47
2019-05-14T07:22:39.064Z,103313.09
2019-05-14T07:25:09.779Z,103309.56
2019-05-14T07:27:39.360Z,103317.73
2019-05-14T07:30:09.771Z,103314.44
2019-05-14T07:32:39.511Z,103315.61
2019-05-14T07:35:09.257Z,103309.25
2019-05-14T07:37:39.550Z,103310.14
2019-05-14T07:40:08.713Z,103307.09
2019-05-14T07:42:38.371Z,103299.88
2019-05-14T07:45:09.546Z,103301.27
2019-05-14T07:47:38.974Z,103294.69
2019-05-14T07:50:08.771Z,103304.71
2019-05-14T07:52:45.545Z,103287.63
2019-05-14T07:55:09.509Z,103284.88
2019-05-14T07:57:39.270Z,103281.33
2019-05-14T08:00:09.993Z,103277.91
2019-05-14T08:02:38.604Z,103286.86
2019-05-14T08:05:08.839Z,103291.63
2019-05-14T08:07:38.824Z,103291.33
2019-05-14T08:10:10.569Z,103286.28
2019-05-14T08:12:39.368Z,103284.91
2019-05-14T08:15:17.768Z,103282.68
2019-05-14T08:17:39.483Z,103272.82
2019-05-14T08:20:10.100Z,103279.59
2019-05-14T08:22:38.803Z,103272.05
2019-05-14T08:25:08.929Z,103270.05
2019-05-14T08:27:39.022Z,103270.59
2019-05-14T08:30:10.204Z,103274.33
2019-05-14T08:32:39.178Z,103270.00
2019-05-14T08:35:09.053Z,103269.57
2019-05-14T08:37:38.683Z,103279.66
2019-05-14T08:40:09.505Z,103274.22
2019-05-14T08:42:38.522Z,103272.80
2019-05-14T08:45:10.592Z,103280.06
2019-05-14T08:47:39.078Z,103280.87
2019-05-14T08:50:09.097Z,103266.97
2019-05-14T08:52:39.304Z,103269.97
2019-05-14T08:55:11.089Z,103265.59
2019-05-14T08:57:38.920Z,103266.64
2019-05-14T09:00:13.680Z,103263.90
2019-05-14T09:02:39.293Z,103256.11
2019-05-14T09:05:10.482Z,103243.59
2019-05-14T09:07:38.681Z,103230.33
2019-05-14T09:10:08.963Z,103229.62
2019-05-14T09:12:38.766Z,103213.37
2019-05-14T09:15:09.841Z,103217.20
2019-05-14T09:17:39.006Z,103206.91
2019-05-14T09:20:11.048Z,103208.09
2019-05-14T09:22:39.733Z,103215.97
2019-05-14T09:25:08.786Z,103202.44
2019-05-14T09:27:38.730Z,103195.27
2019-05-14T09:30:09.622Z,103204.30
2019-05-14T09:32:38.933Z,103206.86
2019-05-14T09:35:09.771Z,103203.84
2019-05-14T09:37:39.617Z,103208.73
2019-05-14T09:40:08.989Z,103205.02
2019-05-14T09:42:39.230Z,103191.70
2019-05-14T09:45:11.240Z,103191.45
2019-05-14T09:47:39.218Z,103184.50
2019-05-14T09:50:16.665Z,103185.45
2019-05-14T09:52:39.290Z,103188.45
2019-05-14T09:55:09.373Z,103180.00
2019-05-14T09:57:38.863Z,103194.02
2019-05-14T10:00:09.128Z,103187.36
2019-05-14T10:02:39.261Z,103175.53
2019-05-14T10:05:09.075Z,103189.83
2019-05-14T10:07:39.157Z,103189.97
2019-05-14T10:10:09.418Z,103179.91
2019-05-14T10:12:51.221Z,103182.30
2019-05-14T10:15:10.369Z,103182.30
2019-05-14T10:17:39.453Z,103193.71
2019-05-14T10:20:09.784Z,103194.81
2019-05-14T10:22:39.810Z,103207.39
2019-05-14T10:25:09.359Z,103200.82
2019-05-14T10:27:37.986Z,103199.84
2019-05-14T10:30:10.580Z,103199.90
2019-05-14T10:32:41.392Z,103182.82
2019-05-14T10:35:09.791Z,103184.47
2019-05-14T10:37:40.038Z,103171.70
2019-05-14T10:40:10.527Z,103167.59
2019-05-14T10:42:40.295Z,103160.19
2019-05-14T10:45:12.688Z,103146.72
2019-05-14T10:47:39.992Z,103147.20
2019-05-14T10:50:13.337Z,103139.34
2019-05-14T10:52:39.634Z,103125.00
2019-05-14T10:55:08.505Z,103120.44
2019-05-14T10:57:37.831Z,103124.66
2019-05-14T11:00:08.937Z,103120.42
2019-05-14T11:02:38.721Z,103125.84
2019-05-14T11:05:08.665Z,103131.23
2019-05-14T11:07:41.574Z,103117.02
2019-05-14T11:10:09.389Z,103118.58
2019-05-14T11:12:39.549Z,103105.91
2019-05-14T11:15:09.602Z,103115.13
2019-05-14T11:17:40.738Z,103101.32
2019-05-14T11:20:08.792Z,103102.16
2019-05-14T11:22:38.091Z,103105.50
2019-05-14T11:25:09.183Z,103110.43
2019-05-14T11:27:38.914Z,103105.88
2019-05-14T11:30:09.108Z,103099.49
2019-05-14T11:32:38.697Z,103096.59
2019-05-14T11:35:12.932Z,103089.27
2019-05-14T11:37:41.482Z,103092.65
2019-05-14T11:40:10.690Z,103081.41
2019-05-14T11:42:39.297Z,103072.73
2019-05-14T11:45:09.892Z,103073.41
2019-05-14T11:47:38.409Z,103064.20
2019-05-14T11:50:09.739Z,103050.95
2019-05-14T11:52:38.952Z,103055.88
2019-05-14T11:55:09.285Z,103052.60
2019-05-14T11:57:38.532Z,103052.00
2019-05-14T12:00:08.764Z,103047.29
2019-05-14T12:02:38.500Z,103043.57
2019-05-14T12:05:09.055Z,103054.20
2019-05-14T12:07:39.023Z,103030.68
2019-05-14T12:10:09.262Z,103034.00
2019-05-14T12:12:38.614Z,103026.70
2019-05-14T12:15:09.120Z,103033.94
2019-05-14T12:17:39.331Z,103033.16
2019-05-14T12:20:09.091Z,103022.52
2019-05-14T12:22:39.357Z,103014.73
2019-05-14T12:25:09.448Z,103009.93
2019-05-14T12:27:39.034Z,103004.86
2019-05-14T12:30:09.685Z,103010.76
2019-05-14T12:32:39.788Z,103010.42
2019-05-14T12:35:09.141Z,103015.17
2019-05-14T12:37:38.800Z,103013.61
2019-05-14T12:40:08.944Z,103002.45
2019-05-14T12:42:39.193Z,103001.22
2019-05-14T12:45:10.601Z,103003.73
2019-05-14T12:47:39.478Z,102999.39
2019-05-14T12:50:09.720Z,102996.41
2019-05-14T12:52:39.224Z,102993.31
2019-05-14T12:55:09.147Z,102997.42
2019-05-14T12:57:39.389Z,102993.05
2019-05-14T13:00:09.872Z,102998.64
2019-05-14T13:02:39.367Z,102994.86
2019-05-14T13:05:08.998Z,102996.21
2019-05-14T13:07:41.410Z,102986.97
2019-05-14T13:10:09.286Z,102977.17
2019-05-14T13:12:39.164Z,102971.65
2019-05-14T13:15:08.903Z,102974.11
2019-05-14T13:17:38.814Z,102968.61
2019-05-14T13:20:13.762Z,102965.75
2019-05-14T13:22:46.146Z,102961.11
2019-05-14T13:25:11.161Z,102972.25
2019-05-14T13:27:39.860Z,102973.38
2019-05-14T13:30:09.382Z,102952.91
2019-05-14T13:32:39.325Z,102953.77
2019-05-14T13:35:13.161Z,102941.00
2019-05-14T13:37:40.155Z,102940.14
2019-05-14T13:40:13.642Z,102933.58
2019-05-14T13:42:44.244Z,102931.28
2019-05-14T13:45:11.935Z,102934.72
2019-05-14T13:47:40.482Z,102925.37
2019-05-14T13:50:10.158Z,102914.74
2019-05-14T13:52:44.435Z,102920.58
2019-05-14T13:55:10.080Z,102919.54
2019-05-14T13:57:39.756Z,102918.92
2019-05-14T14:00:12.167Z,102910.37
2019-05-14T14:02:40.797Z,102915.37
2019-05-14T14:05:10.350Z,102913.05
2019-05-14T14:07:39.698Z,102905.19
2019-05-14T14:10:10.156Z,102896.34
2019-05-14T14:12:40.391Z,102900.64
2019-05-14T14:15:10.383Z,102901.80
2019-05-14T14:17:39.701Z,102885.84
2019-05-14T14:20:09.229Z,102887.24
2019-05-14T14:22:40.096Z,102888.45
2019-05-14T14:25:09.266Z,102882.93
2019-05-14T14:27:40.869Z,102882.82
2019-05-14T14:30:09.815Z,102875.05
2019-05-14T14:32:40.725Z,102880.80
2019-05-14T14:35:09.069Z,102877.52
2019-05-14T14:37:39.743Z,102863.59
2019-05-14T14:40:10.142Z,102869.59
2019-05-14T14:42:40.034Z,102876.37
2019-05-14T14:45:10.100Z,102861.42
2019-05-14T14:47:39.707Z,102869.25
2019-05-14T14:50:09.173Z,102860.62
2019-05-14T14:52:37.794Z,102842.61
2019-05-14T14:55:06.969Z,102847.18
2019-05-14T14:57:35.624Z,102844.84
2019-05-14T15:00:05.541Z,102835.95
2019-05-14T15:02:34.072Z,102838.62
2019-05-14T15:05:02.862Z,102828.39
2019-05-14T15:07:31.488Z,102828.70
2019-05-14T15:10:00.065Z,102822.59
2019-05-14T15:12:29.246Z,102824.91
2019-05-14T15:14:59.347Z,102828.95
2019-05-14T15:17:29.510Z,102827.91
2019-05-14T15:19:59.471Z,102833.73
2019-05-14T15:22:30.870Z,102821.08
2019-05-14T15:24:58.812Z,102815.94
2019-05-14T15:27:28.233Z,102835.27
2019-05-14T15:29:59.310Z,102810.85
2019-05-14T15:32:30.024Z,102814.29
2019-05-14T15:34:59.435Z,102812.75
2019-05-14T15:37:28.608Z,102813.84
2019-05-14T15:39:58.176Z,102816.84
2019-05-14T15:42:28.304Z,102804.55
2019-05-14T15:44:59.834Z,102805.00
2019-05-14T15:47:29.703Z,102805.00
2019-05-14T15:49:59.457Z,102800.75
2019-05-14T15:52:29.297Z,102801.48
2019-05-14T15:54:57.929Z,102793.34
2019-05-14T15:57:28.814Z,102788.74
2019-05-14T16:00:00.896Z,102792.38
2019-05-14T16:02:29.566Z,102793.39
2019-05-14T16:04:59.118Z,102794.45
2019-05-14T16:07:29.286Z,102789.93
2019-05-14T16:10:00.683Z,102789.44
2019-05-14T16:12:32.134Z,102789.55
2019-05-14T16:14:58.639Z,102791.78
2019-05-14T16:17:30.218Z,102785.51
2019-05-14T16:19:57.538Z,102781.88
2019-05-14T16:22:26.232Z,102782.83
2019-05-14T16:24:57.105Z,102775.04
2019-05-14T16:27:25.014Z,102780.71
2019-05-14T16:29:53.634Z,102775.04
2019-05-14T16:32:22.219Z,102769.22
2019-05-14T16:34:50.714Z,102777.09
2019-05-14T16:37:19.375Z,102774.11
2019-05-14T16:39:48.901Z,102773.05
2019-05-14T16:42:20.535Z,102778.45
2019-05-14T16:44:48.261Z,102780.34
2019-05-14T16:47:18.858Z,102783.42
2019-05-14T16:49:48.224Z,102780.73
2019-05-14T16:52:18.083Z,102788.42
2019-05-14T16:54:48.795Z,102783.91
2019-05-14T16:57:18.609Z,102786.63
2019-05-14T16:59:49.670Z,102785.23
2019-05-14T17:02:19.144Z,102783.26
2019-05-14T17:04:48.299Z,102778.77
2019-05-14T17:07:18.226Z,102780.89
2019-05-14T17:09:49.133Z,102779.18
2019-05-14T17:12:20.156Z,102770.22
2019-05-14T17:14:47.700Z,102780.50
2019-05-14T17:17:16.338Z,102766.34
2019-05-14T17:19:44.836Z,102759.75
2019-05-14T17:22:25.305Z,102767.45
2019-05-14T17:24:43.688Z,102764.16
2019-05-14T17:27:12.592Z,102773.44
2019-05-14T17:29:41.242Z,102778.77
2019-05-14T17:32:09.814Z,102773.73
2019-05-14T17:34:38.826Z,102770.54
2019-05-14T17:37:08.896Z,102762.58
2019-05-14T17:39:38.710Z,102765.70
2019-05-14T17:42:11.389Z,102763.72
2019-05-14T17:44:38.857Z,102767.60
2019-05-14T17:47:07.633Z,102761.32
2019-05-14T17:49:36.250Z,102766.44
2019-05-14T17:52:04.815Z,102767.23
2019-05-14T17:54:33.462Z,102766.77
2019-05-14T17:57:02.035Z,102760.42
2019-05-14T17:59:33.467Z,102768.94
2019-05-14T18:02:01.231Z,102762.44
2019-05-14T18:04:29.849Z,102759.54
2019-05-14T18:06:59.190Z,102757.11
2019-05-14T18:09:29.352Z,102768.16
2019-05-14T18:11:58.591Z,102764.03
2019-05-14T18:14:28.420Z,102760.55
2019-05-14T18:16:58.494Z,102761.42
2019-05-14T18:19:28.919Z,102763.79
2019-05-14T18:21:59.295Z,102759.11
2019-05-14T18:24:28.684Z,102756.30
2019-05-14T18:26:57.468Z,102761.89
2019-05-14T18:29:26.115Z,102759.65
2019-05-14T18:31:55.359Z,102758.98
2019-05-14T18:34:24.111Z,102762.60
2019-05-14T18:36:52.591Z,102763.23
2019-05-14T18:39:21.436Z,102765.69
2019-05-14T18:41:50.200Z,102761.17
2019-05-14T18:44:19.068Z,102767.91
2019-05-14T18:46:48.742Z,102764.77
2019-05-14T18:49:19.526Z,102772.37
2019-05-14T18:51:50.111Z,102764.86
2019-05-14T18:54:18.127Z,102760.19
2019-05-14T18:56:48.936Z,102759.44
2019-05-14T18:59:21.313Z,102762.52
2019-05-14T19:01:49.260Z,102760.73
2019-05-14T19:04:18.555Z,102756.02
2019-05-14T19:06:48.238Z,102762.75
2019-05-14T19:09:18.615Z,102759.50
2019-05-14T19:11:48.218Z,102761.08
2019-05-14T19:14:18.743Z,102753.14
2019-05-14T19:16:49.024Z,102750.83
2019-05-14T19:19:17.722Z,102756.38
2019-05-14T19:21:48.684Z,102754.81
2019-05-14T19:24:18.888Z,102754.98
2019-05-14T19:26:49.270Z,102750.89
2019-05-14T19:29:18.566Z,102747.52
2019-05-14T19:31:48.099Z,102750.67
2019-05-14T19:34:19.092Z,102752.74
2019-05-14T19:36:47.154Z,102756.90
2019-05-14T19:39:15.737Z,102750.18
2019-05-14T19:41:44.325Z,102757.15
2019-05-14T19:44:13.018Z,102760.80
2019-05-14T19:46:41.568Z,102763.87
2019-05-14T19:49:09.999Z,102765.28
2019-05-14T19:51:38.830Z,102766.44
2019-05-14T19:54:08.139Z,102765.45
2019-05-14T19:56:51.845Z,102767.45
2019-05-14T19:59:09.084Z,102764.80
2019-05-14T20:01:38.451Z,102770.55
2019-05-14T20:04:09.562Z,102769.59
2019-05-14T20:06:38.827Z,102768.06
2019-05-14T20:09:09.445Z,102768.65
2019-05-14T20:11:39.575Z,102763.52
2019-05-14T20:14:08.614Z,102768.48
2019-05-14T20:16:39.199Z,102764.97
2019-05-14T20:19:08.832Z,102764.45
2019-05-14T20:21:39.013Z,102763.75
2019-05-14T20:24:07.773Z,102763.24
2019-05-14T20:26:38.746Z,102767.40
2019-05-14T20:29:08.725Z,102764.67
2019-05-14T20:31:38.965Z,102762.83
2019-05-14T20:34:08.458Z,102763.95
2019-05-14T20:36:38.941Z,102766.45
2019-05-14T20:39:08.630Z,102761.55
2019-05-14T20:41:38.518Z,102759.97
2019-05-14T20:44:07.302Z,102765.97
2019-05-14T20:46:38.074Z,102756.73
2019-05-14T20:49:08.619Z,102756.74
2019-05-14T20:51:38.684Z,102758.39
2019-05-14T20:54:08.776Z,102750.25
2019-05-14T20:56:36.968Z,102750.81
2019-05-14T20:59:05.492Z,102756.76
2019-05-14T21:01:34.107Z,102749.95
2019-05-14T21:04:02.578Z,102753.80
2019-05-14T21:06:31.165Z,102751.66
2019-05-14T21:08:59.787Z,102746.77
2019-05-14T21:11:28.864Z,102752.50
2019-05-14T21:13:58.104Z,102757.96
2019-05-14T21:16:28.329Z,102751.98
2019-05-14T21:18:59.047Z,102747.05
2019-05-14T21:21:28.301Z,102744.61
2019-05-14T21:23:58.725Z,102739.45
2019-05-14T21:26:29.228Z,102739.45
2019-05-14T21:28:58.231Z,102744.89
2019-05-14T21:31:28.399Z,102738.38
2019-05-14T21:33:58.601Z,102751.15
2019-05-14T21:36:28.383Z,102747.88
2019-05-14T21:38:58.661Z,102748.16
2019-05-14T21:41:29.066Z,102749.23
2019-05-14T21:43:58.370Z,102747.06
2019-05-14T21:46:28.835Z,102751.41
2019-05-14T21:48:58.611Z,102744.34
2019-05-14T21:51:28.357Z,102740.52
2019-05-14T21:53:58.799Z,102737.52
2019-05-14T21:56:29.143Z,102737.23
2019-05-14T21:59:01.032Z,102736.69
2019-05-14T22:01:31.059Z,102738.33
2019-05-14T22:03:59.357Z,102745.11
2019-05-14T22:06:29.081Z,102741.30
2019-05-14T22:08:59.118Z,102737.72
2019-05-14T22:11:28.301Z,102746.66
2019-05-14T22:13:58.328Z,102745.55
2019-05-14T22:16:28.071Z,102746.09
2019-05-14T22:18:59.136Z,102738.49
2019-05-14T22:21:28.844Z,102740.36
2019-05-14T22:23:58.892Z,102736.84
2019-05-14T22:26:28.268Z,102737.08
2019-05-14T22:28:58.665Z,102735.42
2019-05-14T22:31:29.013Z,102739.45
2019-05-14T22:33:58.335Z,102737.29
2019-05-14T22:36:29.315Z,102732.13
2019-05-14T22:38:57.947Z,102726.13
2019-05-14T22:41:28.917Z,102729.11
2019-05-14T22:43:59.876Z,102729.38
2019-05-14T22:46:27.106Z,102725.05
2019-05-14T22:48:55.697Z,102725.28
2019-05-14T22:51:24.401Z,102720.46
2019-05-14T22:53:53.062Z,102716.93
2019-05-14T22:56:21.641Z,102724.26
2019-05-14T22:58:50.268Z,102722.91
2019-05-14T23:01:18.855Z,102718.22
2019-05-14T23:03:48.927Z,102713.81
2019-05-14T23:06:18.719Z,102720.52
2019-05-14T23:08:48.650Z,102718.53
2019-05-14T23:11:19.695Z,102716.80
2019-05-14T23:13:48.861Z,102722.60
2019-05-14T23:16:32.712Z,102720.22
2019-05-14T23:18:48.803Z,102714.58
2019-05-14T23:21:17.496Z,102714.19
2019-05-14T23:23:46.877Z,102716.21
2019-05-14T23:26:15.406Z,102712.38
2019-05-14T23:28:45.834Z,102711.84
2019-05-14T23:31:14.394Z,102711.25
2019-05-14T23:33:43.045Z,102722.50
2019-05-14T23:36:11.806Z,102718.81
2019-05-14T23:38:40.425Z,102715.77
2019-05-14T23:41:09.049Z,102711.47
2019-05-14T23:43:39.186Z,102715.91
2019-05-14T23:46:09.263Z,102709.68
2019-05-14T23:48:39.160Z,102711.06
2019-05-14T23:51:08.288Z,102700.16
2019-05-14T23:53:39.098Z,102699.30
2019-05-14T23:56:08.637Z,102702.71
2019-05-14T23:58:37.535Z,102704.37
